PWSweather.com
Personal Weather Stations
Station Observations
VAB41
Cheltenham Square, Virginia Beach, VA 23454

Cheltenham SquareVirginia Beach, VA 23454

Lat: 36.832882, Lon: -76.054038

Elevation: 12

Station Type: Ambient WS 2080

Latest ConditionsUpdated 8:30:00 AM EST Monday, Nov 24, 2014
Currently Today's Max Today's Min Today's Average
Temperature 68.5°F20.3°C 68.5°F20.3°C 61.9°F16.6°C 65.1°F18.4°C
Dew Point 66.2°F19.0°C 66.8°F19.3°C 61.8°F16.6°C 64.6°F18.1°C
Winds 6.9 mph S11.1 kmh S 9.2 mph ESE14.8 kmh ESE - 4.9 mph 7.9 kmh
Wind Gusts 13.6 mph21.9 kmh 19.7 mph31.7 kmh - -
Humidity 92% 100% 92% 98%
Pressure 29.87 in1011.5 mb 29.95 in1014.2 mb 29.85 in1010.8 mb -
Precipitation - 0.24 in6.1 mm - -
Hour Temp Dew Point Humidity Winds Wind Gusts Pressure Precip Precip Rate Daily Precip Total
08:30 AM 68.5°F20.3°C 66.2°F19.0°C 92% 6.9 mph S11.1 kmh S 13.6 mph21.9 kmh 29.87 in1011.5 mb 0.00 in0.0 mm 0.00 in/hr0.0 mm/hr 0.24 in6.1 mm
08:25 AM 68.2°F20.1°C 65.8°F18.8°C 92% 2.2 mph SSW3.5 kmh SSW 13.6 mph21.9 kmh 29.86 in1011.2 mb 0.00 in0.0 mm 0.00 in/hr0.0 mm/hr 0.24 in6.1 mm
08:20 AM 67.8°F19.9°C 66.1°F18.9°C 94% 7.6 mph SSW12.2 kmh SSW 13.0 mph20.9 kmh 29.86 in1011.2 mb 0.00 in0.0 mm 0.00 in/hr0.0 mm/hr 0.24 in6.1 mm
08:15 AM 67.6°F19.8°C 65.9°F18.8°C 94% 7.6 mph S12.2 kmh S 9.8 mph15.8 kmh 29.86 in1011.2 mb 0.00 in0.0 mm 0.00 in/hr0.0 mm/hr 0.24 in6.1 mm
08:10 AM 67.5°F19.7°C 65.7°F18.7°C 94% 7.6 mph S12.2 kmh S 9.8 mph15.8 kmh 29.86 in1011.2 mb 0.00 in0.0 mm 0.00 in/hr0.0 mm/hr 0.24 in6.1 mm
08:05 AM 67.5°F19.7°C 66.0°F18.9°C 95% 4.5 mph SSW7.2 kmh SSW 9.8 mph15.8 kmh 29.87 in1011.5 mb 0.00 in0.0 mm 0.00 in/hr0.0 mm/hr 0.24 in6.1 mm
08:00 AM 67.3°F19.6°C 66.1°F18.9°C 96% 5.4 mph SSW8.7 kmh SSW 9.8 mph15.8 kmh 29.86 in1011.2 mb 0.00 in0.0 mm 0.00 in/hr0.0 mm/hr 0.24 in6.1 mm
07:55 AM 67.1°F19.5°C 66.3°F19.1°C 97% 6.0 mph S9.7 kmh S 9.8 mph15.8 kmh 29.87 in1011.5 mb 0.00 in0.0 mm 0.00 in/hr0.0 mm/hr 0.24 in6.1 mm
07:50 AM 67.1°F19.5°C 66.3°F19.1°C 97% 5.4 mph WSW8.7 kmh WSW 8.3 mph13.4 kmh 29.86 in1011.2 mb 0.00 in0.0 mm 0.00 in/hr0.0 mm/hr 0.24 in6.1 mm
07:45 AM 67.1°F19.5°C 66.3°F19.1°C 97% 3.8 mph SW6.1 kmh SW 12.1 mph19.5 kmh 29.86 in1011.2 mb 0.00 in0.0 mm 0.00 in/hr0.0 mm/hr 0.24 in6.1 mm
07:40 AM 66.9°F19.4°C 66.1°F18.9°C 97% 3.1 mph SSW5.0 kmh SSW 12.1 mph19.5 kmh 29.86 in1011.2 mb 0.00 in0.0 mm 0.00 in/hr0.0 mm/hr 0.24 in6.1 mm
07:35 AM 66.7°F19.3°C 65.9°F18.8°C 97% 6.9 mph SW11.1 kmh SW 12.1 mph19.5 kmh 29.86 in1011.2 mb 0.00 in0.0 mm 0.00 in/hr0.0 mm/hr 0.24 in6.1 mm
07:30 AM 66.7°F19.3°C 65.9°F18.8°C 97% 6.0 mph SW9.7 kmh SW 9.8 mph15.8 kmh 29.86 in1011.2 mb 0.00 in0.0 mm 0.00 in/hr0.0 mm/hr 0.24 in6.1 mm
07:25 AM 66.6°F19.2°C 65.7°F18.7°C 97% 1.6 mph S2.6 kmh S 7.6 mph12.2 kmh 29.86 in1011.2 mb 0.00 in0.0 mm 0.00 in/hr0.0 mm/hr 0.24 in6.1 mm
07:20 AM 66.6°F19.2°C 65.7°F18.7°C 97% 3.8 mph SE6.1 kmh SE 8.3 mph13.4 kmh 29.85 in1010.8 mb 0.00 in0.0 mm 0.00 in/hr0.0 mm/hr 0.24 in6.1 mm
07:15 AM 66.6°F19.2°C 65.7°F18.7°C 97% 3.1 mph SE5.0 kmh SE 8.3 mph13.4 kmh 29.85 in1010.8 mb 0.00 in0.0 mm 0.00 in/hr0.0 mm/hr 0.24 in6.1 mm
07:10 AM 66.6°F19.2°C 65.7°F18.7°C 97% 3.1 mph SE5.0 kmh SE 9.2 mph14.8 kmh 29.86 in1011.2 mb 0.00 in0.0 mm 0.00 in/hr0.0 mm/hr 0.24 in6.1 mm
07:05 AM 66.6°F19.2°C 66.6°F19.2°C 100% 1.6 mph SE2.6 kmh SE 11.4 mph18.3 kmh 29.85 in1010.8 mb 0.00 in0.0 mm 0.00 in/hr0.0 mm/hr 0.24 in6.1 mm
07:00 AM 66.7°F19.3°C 66.8°F19.3°C 100% 3.1 mph S5.0 kmh S 11.4 mph18.3 kmh 29.85 in1010.8 mb 0.00 in0.0 mm 0.00 in/hr0.0 mm/hr 0.24 in6.1 mm
06:55 AM 66.7°F19.3°C 66.8°F19.3°C 100% 6.9 mph S11.1 kmh S 11.4 mph18.3 kmh 29.86 in1011.2 mb 0.00 in0.0 mm 0.00 in/hr0.0 mm/hr 0.24 in6.1 mm
06:50 AM 66.7°F19.3°C 66.8°F19.3°C 100% 6.0 mph S9.7 kmh S 11.4 mph18.3 kmh 29.86 in1011.2 mb 0.00 in0.0 mm 0.00 in/hr0.0 mm/hr 0.24 in6.1 mm
06:45 AM 66.7°F19.3°C 66.8°F19.3°C 100% 3.8 mph S6.1 kmh S 11.4 mph18.3 kmh 29.86 in1011.2 mb 0.00 in0.0 mm 0.00 in/hr0.0 mm/hr 0.24 in6.1 mm
06:40 AM 66.7°F19.3°C 66.5°F19.2°C 99% 1.6 mph SSW2.6 kmh SSW 9.2 mph14.8 kmh 29.86 in1011.2 mb 0.00 in0.0 mm 0.00 in/hr0.0 mm/hr 0.24 in6.1 mm
06:35 AM 66.7°F19.3°C 66.5°F19.2°C 99% 1.6 mph SSE2.6 kmh SSE 11.4 mph18.3 kmh 29.87 in1011.5 mb 0.00 in0.0 mm 0.00 in/hr0.0 mm/hr 0.24 in6.1 mm
06:30 AM 66.7°F19.3°C 66.5°F19.2°C 99% 4.5 mph SE7.2 kmh SE 11.4 mph18.3 kmh 29.87 in1011.5 mb 0.00 in0.0 mm 0.00 in/hr0.0 mm/hr 0.24 in6.1 mm
06:25 AM 66.6°F19.2°C 66.3°F19.1°C 99% 4.5 mph S7.2 kmh S 11.4 mph18.3 kmh 29.87 in1011.5 mb 0.00 in0.0 mm 0.00 in/hr0.0 mm/hr 0.24 in6.1 mm
06:20 AM 66.6°F19.2°C 66.3°F19.1°C 99% 1.6 mph S2.6 kmh S 9.8 mph15.8 kmh 29.87 in1011.5 mb 0.00 in0.0 mm 0.00 in/hr0.0 mm/hr 0.24 in6.1 mm
06:15 AM 66.6°F19.2°C 66.3°F19.1°C 99% 3.8 mph SSE6.1 kmh SSE 9.8 mph15.8 kmh 29.87 in1011.5 mb 0.00 in0.0 mm 0.00 in/hr0.0 mm/hr 0.24 in6.1 mm
06:10 AM 66.6°F19.2°C 66.3°F19.1°C 99% 3.8 mph S6.1 kmh S 9.2 mph14.8 kmh 29.87 in1011.5 mb 0.00 in0.0 mm 0.00 in/hr0.0 mm/hr 0.24 in6.1 mm
06:05 AM 66.4°F19.1°C 66.1°F18.9°C 99% 6.9 mph S11.1 kmh S 9.2 mph14.8 kmh 29.87 in1011.5 mb 0.00 in0.0 mm 0.00 in/hr0.0 mm/hr 0.24 in6.1 mm
06:00 AM 66.4°F19.1°C 66.1°F18.9°C 99% 1.6 mph SSE2.6 kmh SSE 8.3 mph13.4 kmh 29.87 in1011.5 mb 0.00 in0.0 mm 0.00 in/hr0.0 mm/hr 0.24 in6.1 mm
05:55 AM 66.4°F19.1°C 66.1°F18.9°C 99% 3.8 mph S6.1 kmh S 9.2 mph14.8 kmh 29.87 in1011.5 mb 0.00 in0.0 mm 0.00 in/hr0.0 mm/hr 0.24 in6.1 mm
05:50 AM 66.2°F19.0°C 65.9°F18.8°C 99% 5.4 mph SSW8.7 kmh SSW 9.2 mph14.8 kmh 29.87 in1011.5 mb 0.00 in0.0 mm 0.00 in/hr0.0 mm/hr 0.24 in6.1 mm
05:45 AM 65.8°F18.8°C 65.6°F18.7°C 99% 3.8 mph SSW6.1 kmh SSW 9.2 mph14.8 kmh 29.88 in1011.9 mb 0.00 in0.0 mm 0.00 in/hr0.0 mm/hr 0.24 in6.1 mm
05:40 AM 65.8°F18.8°C 65.6°F18.7°C 99% 3.8 mph S6.1 kmh S 10.7 mph17.2 kmh 29.88 in1011.9 mb 0.00 in0.0 mm 0.00 in/hr0.0 mm/hr 0.24 in6.1 mm
05:35 AM 65.8°F18.8°C 65.6°F18.7°C 99% 1.6 mph SSE2.6 kmh SSE 10.7 mph17.2 kmh 29.87 in1011.5 mb 0.00 in0.0 mm 0.00 in/hr0.0 mm/hr 0.24 in6.1 mm
05:30 AM 65.8°F18.8°C 65.6°F18.7°C 99% 3.1 mph E5.0 kmh E 11.4 mph18.3 kmh 29.86 in1011.2 mb 0.00 in0.0 mm 0.00 in/hr0.0 mm/hr 0.24 in6.1 mm
05:25 AM 65.5°F18.6°C 65.2°F18.4°C 99% 5.4 mph NW8.7 kmh NW 11.4 mph18.3 kmh 29.86 in1011.2 mb 0.00 in0.0 mm 0.00 in/hr0.0 mm/hr 0.24 in6.1 mm
05:20 AM 65.5°F18.6°C 65.2°F18.4°C 99% 6.0 mph ESE9.7 kmh ESE 11.4 mph18.3 kmh 29.86 in1011.2 mb 0.00 in0.0 mm 0.00 in/hr0.0 mm/hr 0.24 in6.1 mm
05:15 AM 65.5°F18.6°C 65.2°F18.4°C 99% 3.8 mph SE6.1 kmh SE 10.7 mph17.2 kmh 29.86 in1011.2 mb 0.00 in0.0 mm 0.00 in/hr0.0 mm/hr 0.24 in6.1 mm
05:10 AM 65.5°F18.6°C 65.2°F18.4°C 99% 3.1 mph SSE5.0 kmh SSE 8.3 mph13.4 kmh 29.86 in1011.2 mb 0.00 in0.0 mm 0.00 in/hr0.0 mm/hr 0.24 in6.1 mm
05:05 AM 65.5°F18.6°C 65.2°F18.4°C 99% 1.6 mph SSE2.6 kmh SSE 10.7 mph17.2 kmh 29.85 in1010.8 mb 0.00 in0.0 mm 0.00 in/hr0.0 mm/hr 0.24 in6.1 mm
05:00 AM 65.5°F18.6°C 65.2°F18.4°C 99% 2.2 mph SE3.5 kmh SE 10.7 mph17.2 kmh 29.86 in1011.2 mb 0.00 in0.0 mm 0.00 in/hr0.0 mm/hr 0.24 in6.1 mm
04:55 AM 65.5°F18.6°C 65.2°F18.4°C 99% 3.8 mph E6.1 kmh E 13.0 mph20.9 kmh 29.86 in1011.2 mb 0.00 in0.0 mm 0.00 in/hr0.0 mm/hr 0.24 in6.1 mm
04:50 AM 65.8°F18.8°C 65.6°F18.7°C 99% 3.1 mph ENE5.0 kmh ENE 13.0 mph20.9 kmh 29.86 in1011.2 mb 0.00 in0.0 mm 0.00 in/hr0.0 mm/hr 0.24 in6.1 mm
04:45 AM 65.5°F18.6°C 65.2°F18.4°C 99% 3.1 mph ESE5.0 kmh ESE 9.8 mph15.8 kmh 29.86 in1011.2 mb 0.00 in0.0 mm 0.00 in/hr0.0 mm/hr 0.24 in6.1 mm
04:40 AM 65.5°F18.6°C 65.2°F18.4°C 99% 4.5 mph SSE7.2 kmh SSE 13.6 mph21.9 kmh 29.87 in1011.5 mb 0.00 in0.0 mm 0.00 in/hr0.0 mm/hr 0.24 in6.1 mm
04:35 AM 65.5°F18.6°C 65.2°F18.4°C 99% 6.0 mph SSE9.7 kmh SSE 13.6 mph21.9 kmh 29.87 in1011.5 mb 0.00 in0.0 mm 0.00 in/hr0.0 mm/hr 0.24 in6.1 mm
04:30 AM 65.5°F18.6°C 65.2°F18.4°C 99% 6.9 mph SE11.1 kmh SE 13.6 mph21.9 kmh 29.87 in1011.5 mb 0.00 in0.0 mm 0.00 in/hr0.0 mm/hr 0.24 in6.1 mm
04:25 AM 65.5°F18.6°C 65.2°F18.4°C 99% 5.4 mph SE8.7 kmh SE 13.6 mph21.9 kmh 29.87 in1011.5 mb 0.01 in0.3 mm 0.00 in/hr0.0 mm/hr 0.24 in6.1 mm
04:20 AM 65.3°F18.5°C 65.0°F18.3°C 99% 4.5 mph ESE7.2 kmh ESE 13.6 mph21.9 kmh 29.88 in1011.9 mb 0.01 in0.3 mm 0.00 in/hr0.0 mm/hr 0.24 in6.1 mm
04:15 AM 65.3°F18.5°C 65.0°F18.3°C 99% 4.5 mph SE7.2 kmh SE 13.6 mph21.9 kmh 29.88 in1011.9 mb 0.01 in0.3 mm 0.00 in/hr0.0 mm/hr 0.24 in6.1 mm
04:10 AM 65.3°F18.5°C 65.0°F18.3°C 99% 4.5 mph SE7.2 kmh SE 13.6 mph21.9 kmh 29.88 in1011.9 mb 0.01 in0.3 mm 0.00 in/hr0.0 mm/hr 0.24 in6.1 mm
04:05 AM 65.3°F18.5°C 65.0°F18.3°C 99% 6.0 mph SE9.7 kmh SE 13.0 mph20.9 kmh 29.88 in1011.9 mb 0.01 in0.3 mm 0.00 in/hr0.0 mm/hr 0.24 in6.1 mm
04:00 AM 65.3°F18.5°C 65.0°F18.3°C 99% 6.9 mph SSE11.1 kmh SSE 11.4 mph18.3 kmh 29.89 in1012.2 mb 0.01 in0.3 mm 0.00 in/hr0.0 mm/hr 0.24 in6.1 mm
03:55 AM 65.3°F18.5°C 65.0°F18.3°C 99% 7.6 mph SSE12.2 kmh SSE 11.4 mph18.3 kmh 29.89 in1012.2 mb 0.01 in0.3 mm 0.00 in/hr0.0 mm/hr 0.24 in6.1 mm
03:50 AM 65.3°F18.5°C 65.0°F18.3°C 99% 3.1 mph SE5.0 kmh SE 15.9 mph25.6 kmh 29.89 in1012.2 mb 0.01 in0.3 mm 0.00 in/hr0.0 mm/hr 0.24 in6.1 mm
03:45 AM 65.3°F18.5°C 65.0°F18.3°C 99% 5.4 mph E8.7 kmh E 15.9 mph25.6 kmh 29.89 in1012.2 mb 0.01 in0.3 mm 0.00 in/hr0.0 mm/hr 0.24 in6.1 mm
03:40 AM 65.3°F18.5°C 65.0°F18.3°C 99% 7.6 mph SE12.2 kmh SE 15.9 mph25.6 kmh 29.88 in1011.9 mb 0.01 in0.3 mm 0.00 in/hr0.0 mm/hr 0.24 in6.1 mm
03:35 AM 65.5°F18.6°C 65.2°F18.4°C 99% 4.5 mph SE7.2 kmh SE 13.0 mph20.9 kmh 29.89 in1012.2 mb 0.01 in0.3 mm 0.00 in/hr0.0 mm/hr 0.24 in6.1 mm
03:30 AM 65.8°F18.8°C 65.6°F18.7°C 99% 3.1 mph SE5.0 kmh SE 13.0 mph20.9 kmh 29.89 in1012.2 mb 0.01 in0.3 mm 0.12 in/hr3.0 mm/hr 0.24 in6.1 mm
03:25 AM 65.5°F18.6°C 65.2°F18.4°C 99% 3.8 mph SE6.1 kmh SE 12.1 mph19.5 kmh 29.89 in1012.2 mb 0.00 in0.0 mm 0.00 in/hr0.0 mm/hr 0.22 in5.6 mm
03:20 AM 65.3°F18.5°C 65.0°F18.3°C 99% 6.9 mph SE11.1 kmh SE 13.0 mph20.9 kmh 29.89 in1012.2 mb 0.00 in0.0 mm 0.00 in/hr0.0 mm/hr 0.22 in5.6 mm
03:15 AM 65.3°F18.5°C 65.0°F18.3°C 99% 3.8 mph SE6.1 kmh SE 13.0 mph20.9 kmh 29.88 in1011.9 mb 0.00 in0.0 mm 0.00 in/hr0.0 mm/hr 0.22 in5.6 mm
03:10 AM 65.3°F18.5°C 65.0°F18.3°C 99% 6.0 mph SE9.7 kmh SE 13.6 mph21.9 kmh 29.89 in1012.2 mb 0.00 in0.0 mm 0.00 in/hr0.0 mm/hr 0.22 in5.6 mm
03:05 AM 65.1°F18.4°C 64.9°F18.3°C 99% 4.5 mph SE7.2 kmh SE 13.6 mph21.9 kmh 29.89 in1012.2 mb 0.01 in0.3 mm 0.00 in/hr0.0 mm/hr 0.22 in5.6 mm
03:00 AM 64.9°F18.3°C 64.7°F18.2°C 99% 3.8 mph SE6.1 kmh SE 13.6 mph21.9 kmh 29.89 in1012.2 mb 0.02 in0.5 mm 0.00 in/hr0.0 mm/hr 0.22 in5.6 mm
02:55 AM 64.9°F18.3°C 64.7°F18.2°C 99% 6.9 mph SE11.1 kmh SE 14.5 mph23.3 kmh 29.89 in1012.2 mb 0.05 in1.3 mm 0.00 in/hr0.0 mm/hr 0.22 in5.6 mm
02:50 AM 64.8°F18.2°C 64.5°F18.1°C 99% 3.8 mph SE6.1 kmh SE 14.5 mph23.3 kmh 29.89 in1012.2 mb 0.06 in1.5 mm 0.00 in/hr0.0 mm/hr 0.22 in5.6 mm
02:45 AM 64.6°F18.1°C 64.3°F17.9°C 99% 3.8 mph SE6.1 kmh SE 16.8 mph27.0 kmh 29.90 in1012.5 mb 0.08 in2.0 mm 0.00 in/hr0.0 mm/hr 0.22 in5.6 mm
02:40 AM 64.6°F18.1°C 64.3°F17.9°C 99% 3.1 mph ENE5.0 kmh ENE 16.8 mph27.0 kmh 29.89 in1012.2 mb 0.17 in4.3 mm 0.00 in/hr0.0 mm/hr 0.22 in5.6 mm
02:35 AM 64.4°F18.0°C 64.1°F17.8°C 99% 5.4 mph E8.7 kmh E 19.7 mph31.7 kmh 29.90 in1012.5 mb 0.18 in4.6 mm 0.00 in/hr0.0 mm/hr 0.22 in5.6 mm
02:30 AM 64.2°F17.9°C 63.4°F17.4°C 97% 3.8 mph SE6.1 kmh SE 19.7 mph31.7 kmh 29.89 in1012.2 mb 0.19 in4.8 mm 0.00 in/hr0.0 mm/hr 0.22 in5.6 mm
02:25 AM 64.0°F17.8°C 63.2°F17.3°C 97% 6.9 mph SE11.1 kmh SE 19.7 mph31.7 kmh 29.89 in1012.2 mb 0.19 in4.8 mm 0.00 in/hr0.0 mm/hr 0.22 in5.6 mm
02:20 AM 63.9°F17.7°C 63.0°F17.2°C 97% 4.5 mph SE7.2 kmh SE 18.3 mph29.5 kmh 29.89 in1012.2 mb 0.19 in4.8 mm 0.00 in/hr0.0 mm/hr 0.22 in5.6 mm
02:15 AM 63.7°F17.6°C 62.8°F17.1°C 97% 7.6 mph SE12.2 kmh SE 18.3 mph29.5 kmh 29.88 in1011.9 mb 0.20 in5.1 mm 0.00 in/hr0.0 mm/hr 0.22 in5.6 mm
02:10 AM 63.5°F17.5°C 62.7°F17.1°C 97% 3.8 mph SE6.1 kmh SE 15.2 mph24.5 kmh 29.87 in1011.5 mb 0.20 in5.1 mm 0.12 in/hr3.0 mm/hr 0.22 in5.6 mm
02:05 AM 63.3°F17.4°C 62.5°F16.9°C 97% 7.6 mph ESE12.2 kmh ESE 15.2 mph24.5 kmh 29.88 in1011.9 mb 0.19 in4.8 mm 0.12 in/hr3.0 mm/hr 0.21 in5.3 mm
02:00 AM 63.1°F17.3°C 62.3°F16.8°C 97% 7.6 mph SE12.2 kmh SE 18.3 mph29.5 kmh 29.89 in1012.2 mb 0.18 in4.6 mm 0.01 in/hr0.3 mm/hr 0.20 in5.1 mm
01:55 AM 63.0°F17.2°C 62.1°F16.7°C 97% 7.6 mph SE12.2 kmh SE 18.3 mph29.5 kmh 29.90 in1012.5 mb 0.17 in4.3 mm 0.24 in/hr6.1 mm/hr 0.18 in4.6 mm
01:50 AM 63.0°F17.2°C 62.1°F16.7°C 97% 6.9 mph SE11.1 kmh SE 13.6 mph21.9 kmh 29.90 in1012.5 mb 0.15 in3.8 mm 0.48 in/hr12.2 mm/hr 0.17 in4.3 mm
01:45 AM 63.0°F17.2°C 62.1°F16.7°C 97% 0.7 mph SE1.1 kmh SE 9.8 mph15.8 kmh 29.90 in1012.5 mb 0.11 in2.8 mm 0.72 in/hr18.3 mm/hr 0.12 in3.0 mm
01:40 AM 62.8°F17.1°C 61.9°F16.6°C 97% 2.2 mph SE3.5 kmh SE 9.8 mph15.8 kmh 29.92 in1013.2 mb 0.05 in1.3 mm 0.36 in/hr9.1 mm/hr 0.06 in1.5 mm
01:35 AM 62.8°F17.1°C 61.9°F16.6°C 97% 6.9 mph SE11.1 kmh SE 15.2 mph24.5 kmh 29.91 in1012.9 mb 0.02 in0.5 mm 0.00 in/hr0.0 mm/hr 0.04 in1.0 mm
01:30 AM 62.8°F17.1°C 61.9°F16.6°C 97% 7.6 mph SE12.2 kmh SE 15.2 mph24.5 kmh 29.91 in1012.9 mb 0.02 in0.5 mm 0.00 in/hr0.0 mm/hr 0.04 in1.0 mm
01:25 AM 62.6°F17.0°C 61.8°F16.6°C 97% 5.4 mph ESE8.7 kmh ESE 14.5 mph23.3 kmh 29.90 in1012.5 mb 0.02 in0.5 mm 0.00 in/hr0.0 mm/hr 0.04 in1.0 mm
01:20 AM 62.6°F17.0°C 61.8°F16.6°C 97% 7.6 mph E12.2 kmh E 14.5 mph23.3 kmh 29.90 in1012.5 mb 0.04 in1.0 mm 0.24 in/hr6.1 mm/hr 0.04 in1.0 mm
01:15 AM 62.6°F17.0°C 61.8°F16.6°C 97% 5.4 mph ESE8.7 kmh ESE 15.2 mph24.5 kmh 29.90 in1012.5 mb 0.02 in0.5 mm 0.00 in/hr0.0 mm/hr 0.02 in0.5 mm
01:10 AM 62.4°F16.9°C 62.4°F16.9°C 100% 4.5 mph SE7.2 kmh SE 15.9 mph25.6 kmh 29.89 in1012.2 mb 0.02 in0.5 mm 0.00 in/hr0.0 mm/hr 0.02 in0.5 mm
01:05 AM 62.4°F16.9°C 62.4°F16.9°C 100% 7.6 mph SE12.2 kmh SE 15.9 mph25.6 kmh 29.88 in1011.9 mb 0.02 in0.5 mm 0.00 in/hr0.0 mm/hr 0.02 in0.5 mm
01:00 AM 62.4°F16.9°C 62.4°F16.9°C 100% 6.0 mph SE9.7 kmh SE 17.4 mph28.0 kmh 29.88 in1011.9 mb 0.02 in0.5 mm 0.00 in/hr0.0 mm/hr 0.02 in0.5 mm
12:55 AM 62.4°F16.9°C 62.4°F16.9°C 100% 6.0 mph SE9.7 kmh SE 17.4 mph28.0 kmh 29.90 in1012.5 mb 0.02 in0.5 mm 0.00 in/hr0.0 mm/hr 0.01 in0.3 mm
12:50 AM 62.6°F17.0°C 61.8°F16.6°C 97% 5.4 mph SE8.7 kmh SE 17.4 mph28.0 kmh 29.91 in1012.9 mb 0.05 in1.3 mm 0.00 in/hr0.0 mm/hr 0.01 in0.3 mm
12:45 AM 62.6°F17.0°C 61.8°F16.6°C 97% 6.9 mph SE11.1 kmh SE 17.4 mph28.0 kmh 29.92 in1013.2 mb 0.06 in1.5 mm 0.00 in/hr0.0 mm/hr 0.01 in0.3 mm
12:40 AM 62.6°F17.0°C 61.8°F16.6°C 97% 6.0 mph SE9.7 kmh SE 13.6 mph21.9 kmh 29.92 in1013.2 mb 0.09 in2.3 mm 0.00 in/hr0.0 mm/hr 0.01 in0.3 mm
12:35 AM 62.4°F16.9°C 62.4°F16.9°C 100% 6.0 mph ESE9.7 kmh ESE 13.0 mph20.9 kmh 29.92 in1013.2 mb 0.14 in3.6 mm 0.00 in/hr0.0 mm/hr 0.01 in0.3 mm
12:30 AM 62.4°F16.9°C 62.4°F16.9°C 100% 9.2 mph ESE14.8 kmh ESE 13.6 mph21.9 kmh 29.92 in1013.2 mb 0.14 in3.6 mm 0.00 in/hr0.0 mm/hr 0.01 in0.3 mm
12:25 AM 62.4°F16.9°C 62.4°F16.9°C 100% 6.9 mph ESE11.1 kmh ESE 15.9 mph25.6 kmh 29.93 in1013.5 mb 0.17 in4.3 mm 0.00 in/hr0.0 mm/hr 0.01 in0.3 mm
12:20 AM 62.4°F16.9°C 62.4°F16.9°C 100% 6.0 mph SE9.7 kmh SE 15.9 mph25.6 kmh 29.93 in1013.5 mb 0.17 in4.3 mm 0.00 in/hr0.0 mm/hr 0.18 in4.6 mm
12:15 AM 62.1°F16.7°C 62.1°F16.7°C 100% 6.0 mph SE9.7 kmh SE 14.5 mph23.3 kmh 29.93 in1013.5 mb 0.17 in4.3 mm 0.00 in/hr0.0 mm/hr 0.18 in4.6 mm
12:10 AM 62.1°F16.7°C 62.1°F16.7°C 100% 7.6 mph E12.2 kmh E 14.5 mph23.3 kmh 29.94 in1013.9 mb 0.17 in4.3 mm 0.00 in/hr0.0 mm/hr 0.18 in4.6 mm
12:05 AM 61.9°F16.6°C 61.9°F16.6°C 100% 6.0 mph E9.7 kmh E 14.5 mph23.3 kmh 29.95 in1014.2 mb 0.18 in4.6 mm 0.00 in/hr0.0 mm/hr 0.18 in4.6 mm
12:00 AM 61.9°F16.6°C 61.9°F16.6°C 100% 4.5 mph E7.2 kmh E 9.8 mph15.8 kmh 29.95 in1014.2 mb 0.18 in4.6 mm 0.00 in/hr0.0 mm/hr 0.18 in4.6 mm